Terminal Aerodrome Forecast
Issued by NWS Wilmington, OH

Current Version | Previous Version | Text Only | Print | Product List | Glossary Off
Versions: 1 2 3 4 5 6 7 8 9 10 11 12 13 14 15 16 17 18

000
FTUS41 KILN 220206 AAA
TAFDAY
TAF AMD
KDAY 220206Z 2202/2224 19007KT P6SM VCSH OVC012
     FM220900 18009KT P6SM BKN080 WS020/21045KT
     FM221600 18014G24KT P6SM VCSH BKN060 WS020/20045KT
     FM221900 18014G24KT 4SM -SHRA BR OVC012=

USA.gov is the U.S. government's official web portal to all federal, state and local government web resources and services.